createdAt,value
2018-05-18T00:02:19.872Z,9.40
2018-05-18T00:04:47.466Z,9.40
2018-05-18T00:07:15.082Z,9.40
2018-05-18T00:09:42.669Z,9.40
2018-05-18T00:12:10.234Z,9.40
2018-05-18T00:14:37.828Z,9.40
2018-05-18T00:17:06.160Z,9.40
2018-05-18T00:19:33.757Z,9.40
2018-05-18T00:22:01.354Z,9.40
2018-05-18T00:24:28.956Z,9.30
2018-05-18T00:26:56.524Z,9.30
2018-05-18T00:29:24.155Z,9.30
2018-05-18T00:31:51.730Z,9.30
2018-05-18T00:34:19.287Z,9.30
2018-05-18T00:36:46.901Z,9.20
2018-05-18T00:39:14.468Z,9.30
2018-05-18T00:41:42.116Z,9.30
2018-05-18T00:44:10.503Z,9.30
2018-05-18T00:46:38.144Z,9.30
2018-05-18T00:49:05.754Z,9.30
2018-05-18T00:51:33.312Z,9.30
2018-05-18T00:54:00.911Z,9.20
2018-05-18T00:56:28.468Z,9.20
2018-05-18T00:58:56.050Z,9.30
2018-05-18T01:01:23.870Z,9.30
2018-05-18T01:03:52.188Z,9.30
2018-05-18T01:06:19.788Z,9.30
2018-05-18T01:08:47.385Z,9.20
2018-05-18T01:11:14.943Z,9.30
2018-05-18T01:13:42.545Z,9.20
2018-05-18T01:16:10.110Z,9.20
2018-05-18T01:18:38.471Z,9.20
2018-05-18T01:21:06.041Z,9.10
2018-05-18T01:23:34.420Z,9.20
2018-05-18T01:26:02.136Z,9.20
2018-05-18T01:28:29.732Z,9.20
2018-05-18T01:30:57.331Z,9.20
2018-05-18T01:33:24.941Z,9.20
2018-05-18T01:35:52.500Z,9.20
2018-05-18T01:38:20.112Z,9.20
2018-05-18T01:40:47.672Z,9.20
2018-05-18T01:43:15.232Z,9.20
2018-05-18T01:45:43.592Z,9.20
2018-05-18T01:48:11.921Z,9.20
2018-05-18T01:50:39.578Z,9.20
2018-05-18T01:53:07.160Z,9.10
2018-05-18T01:55:34.768Z,9.10
2018-05-18T01:58:02.352Z,9.20
2018-05-18T02:00:29.927Z,9.10
2018-05-18T02:02:57.520Z,9.10
2018-05-18T02:05:25.165Z,9.10
2018-05-18T02:07:52.732Z,9.10
2018-05-18T02:10:20.344Z,9.10
2018-05-18T02:12:47.946Z,9.10
2018-05-18T02:15:15.509Z,9.10
2018-05-18T02:17:43.107Z,9.10
2018-05-18T02:20:10.693Z,9.10
2018-05-18T02:22:38.304Z,9.10
2018-05-18T02:25:05.873Z,9.10
2018-05-18T02:27:33.438Z,9.10
2018-05-18T02:30:01.037Z,9.10
2018-05-18T02:32:28.609Z,9.00
2018-05-18T02:34:56.213Z,9.00
2018-05-18T02:37:23.857Z,9.00
2018-05-18T02:39:51.456Z,9.10
2018-05-18T02:42:19.020Z,9.10
2018-05-18T02:44:47.452Z,9.00
2018-05-18T02:47:15.016Z,9.00
2018-05-18T02:49:42.640Z,9.00
2018-05-18T02:52:10.195Z,9.00
2018-05-18T02:54:38.653Z,9.00
2018-05-18T02:57:06.252Z,9.00
2018-05-18T02:59:33.809Z,9.00
2018-05-18T03:02:01.424Z,9.10
2018-05-18T03:04:28.992Z,9.10
2018-05-18T03:06:56.554Z,9.10
2018-05-18T03:09:24.153Z,9.10
2018-05-18T03:11:51.756Z,9.10
2018-05-18T03:14:19.322Z,9.00
2018-05-18T03:16:46.924Z,9.00
2018-05-18T03:19:15.249Z,9.00
2018-05-18T03:21:42.840Z,9.00
2018-05-18T03:24:10.463Z,9.00
2018-05-18T03:26:38.073Z,9.00
2018-05-18T03:29:06.404Z,9.00
2018-05-18T03:31:33.961Z,9.00
2018-05-18T03:34:01.604Z,9.00
2018-05-18T03:36:29.170Z,9.00
2018-05-18T03:38:56.765Z,9.00
2018-05-18T03:41:24.336Z,9.00
2018-05-18T03:43:51.962Z,9.00
2018-05-18T03:46:19.527Z,9.00
2018-05-18T03:48:47.141Z,9.00
2018-05-18T03:51:15.532Z,9.00
2018-05-18T03:53:43.892Z,9.00
2018-05-18T03:56:11.498Z,9.00
2018-05-18T03:58:39.062Z,9.00
2018-05-18T04:01:06.663Z,9.00
2018-05-18T04:03:45.953Z,9.00
2018-05-18T04:06:25.315Z,9.10
2018-05-18T04:08:52.878Z,9.10
2018-05-18T04:11:20.479Z,9.10
2018-05-18T04:13:48.802Z,9.10
2018-05-18T04:16:16.412Z,9.10
2018-05-18T04:18:43.980Z,9.10
2018-05-18T04:21:11.584Z,9.10
2018-05-18T04:23:39.153Z,9.20
2018-05-18T04:26:06.755Z,9.20
2018-05-18T04:28:35.086Z,9.10
2018-05-18T04:31:02.742Z,9.10
2018-05-18T04:33:30.299Z,9.20
2018-05-18T04:35:57.856Z,9.20
2018-05-18T04:38:25.458Z,9.20
2018-05-18T04:40:53.036Z,9.20
2018-05-18T04:43:21.502Z,9.20
2018-05-18T04:45:49.800Z,9.30
2018-05-18T04:48:18.142Z,9.30
2018-05-18T04:50:45.710Z,9.30
2018-05-18T04:53:13.317Z,9.30
2018-05-18T04:55:40.918Z,9.30
2018-05-18T04:58:08.483Z,9.30
2018-05-18T05:00:36.094Z,9.30
2018-05-18T05:03:04.428Z,9.40
2018-05-18T05:05:32.044Z,9.40
2018-05-18T05:07:59.624Z,9.40
2018-05-18T05:10:27.260Z,9.40
2018-05-18T05:12:54.845Z,9.50
2018-05-18T05:15:22.407Z,9.50
2018-05-18T05:17:50.025Z,9.50
2018-05-18T05:20:17.609Z,9.50
2018-05-18T05:22:45.968Z,9.50
2018-05-18T05:25:14.297Z,9.60
2018-05-18T05:27:41.904Z,9.60
2018-05-18T05:30:09.473Z,9.60
2018-05-18T05:32:37.044Z,9.50
2018-05-18T05:35:05.407Z,9.60
2018-05-18T05:37:33.776Z,9.60
2018-05-18T05:40:01.389Z,9.60
2018-05-18T05:42:28.947Z,9.70
2018-05-18T05:44:56.540Z,9.80
2018-05-18T05:47:24.103Z,9.80
2018-05-18T05:49:51.700Z,9.80
2018-05-18T05:52:20.036Z,10.00
2018-05-18T05:54:47.647Z,9.90
2018-05-18T05:57:15.250Z,10.00
2018-05-18T05:59:42.845Z,10.00
2018-05-18T06:02:10.462Z,10.00
2018-05-18T06:04:38.028Z,10.10
2018-05-18T06:07:05.598Z,10.10
2018-05-18T06:09:33.203Z,10.00
2018-05-18T06:12:01.541Z,10.10
2018-05-18T06:14:29.148Z,10.10
2018-05-18T06:16:56.721Z,10.10
2018-05-18T06:19:24.418Z,10.20
2018-05-18T06:21:51.973Z,10.20
2018-05-18T06:24:19.546Z,10.20
2018-05-18T06:26:47.195Z,10.20
2018-05-18T06:29:14.804Z,10.20
2018-05-18T06:31:42.383Z,10.20
2018-05-18T06:34:09.993Z,10.20
2018-05-18T06:36:37.622Z,10.20
2018-05-18T06:39:06.974Z,10.20
2018-05-18T06:41:34.583Z,10.30
2018-05-18T06:44:02.152Z,10.30
2018-05-18T06:46:29.760Z,10.40
2018-05-18T06:48:57.329Z,10.30
2018-05-18T06:51:24.905Z,10.40
2018-05-18T06:53:53.298Z,10.50
2018-05-18T06:56:20.920Z,10.50
2018-05-18T06:58:48.555Z,10.60
2018-05-18T07:01:16.928Z,10.60
2018-05-18T07:03:44.538Z,10.60
2018-05-18T07:06:12.108Z,10.60
2018-05-18T07:08:40.482Z,10.70
2018-05-18T07:11:08.810Z,10.70
2018-05-18T07:13:36.417Z,10.70
2018-05-18T07:16:04.041Z,10.70
2018-05-18T07:18:31.616Z,10.70
2018-05-18T07:20:59.212Z,10.70
2018-05-18T07:23:27.555Z,10.80
2018-05-18T07:25:55.227Z,10.80
2018-05-18T07:28:24.603Z,10.70
2018-05-18T07:30:52.214Z,10.70
2018-05-18T07:33:20.548Z,10.80
2018-05-18T07:35:48.201Z,10.80
2018-05-18T07:38:15.798Z,10.80
2018-05-18T07:40:43.368Z,10.70
2018-05-18T07:43:10.989Z,10.80
2018-05-18T07:45:38.577Z,10.90
2018-05-18T07:48:06.189Z,10.90
2018-05-18T07:50:33.764Z,11.00
2018-05-18T07:53:01.369Z,11.10
2018-05-18T07:55:29.961Z,11.20
2018-05-18T07:57:57.532Z,11.10
2018-05-18T08:00:25.884Z,11.30
2018-05-18T08:02:53.518Z,11.20
2018-05-18T08:05:21.094Z,11.40
2018-05-18T08:07:48.710Z,11.60
2018-05-18T08:10:17.065Z,11.90
2018-05-18T08:12:45.400Z,11.90
2018-05-18T08:15:13.028Z,11.90
2018-05-18T08:17:40.633Z,12.00
2018-05-18T08:20:08.216Z,12.10
2018-05-18T08:22:35.830Z,12.20
2018-05-18T08:25:03.458Z,12.30
2018-05-18T08:27:31.110Z,12.40
2018-05-18T08:29:58.679Z,12.50
2018-05-18T08:32:26.378Z,12.50
2018-05-18T08:34:53.965Z,12.60
2018-05-18T08:37:21.562Z,12.60
2018-05-18T08:39:49.950Z,12.90
2018-05-18T08:42:18.349Z,12.70
2018-05-18T08:44:45.923Z,12.70
2018-05-18T08:47:13.509Z,12.60
2018-05-18T08:49:41.127Z,12.70
2018-05-18T08:52:08.701Z,12.70
2018-05-18T08:54:36.300Z,12.70
2018-05-18T08:57:03.929Z,12.70
2018-05-18T08:59:31.552Z,12.80
2018-05-18T09:01:59.923Z,13.10
2018-05-18T09:04:27.537Z,13.10
2018-05-18T09:06:55.119Z,13.00
2018-05-18T09:09:22.733Z,12.80
2018-05-18T09:11:50.344Z,12.70
2018-05-18T09:14:17.913Z,12.60
2018-05-18T09:16:45.525Z,12.60
2018-05-18T09:19:13.113Z,12.50
2018-05-18T09:21:40.720Z,12.50
2018-05-18T09:24:09.154Z,12.40
2018-05-18T09:26:36.778Z,12.40
2018-05-18T09:29:04.351Z,12.40
2018-05-18T09:31:31.957Z,12.50
2018-05-18T09:33:59.544Z,12.50
2018-05-18T09:36:27.978Z,12.40
2018-05-18T09:38:55.565Z,12.40
2018-05-18T09:41:23.166Z,12.40
2018-05-18T09:43:50.790Z,12.40
2018-05-18T09:46:18.361Z,12.30
2018-05-18T09:48:45.974Z,12.20
2018-05-18T09:51:13.577Z,12.10
2018-05-18T09:53:41.186Z,12.20
2018-05-18T09:56:08.757Z,12.30
2018-05-18T09:58:36.362Z,12.60
2018-05-18T10:01:04.748Z,12.80
2018-05-18T10:03:32.321Z,12.80
2018-05-18T10:05:59.953Z,12.90
2018-05-18T10:08:27.527Z,12.90
2018-05-18T10:10:55.151Z,12.90
2018-05-18T10:13:22.722Z,12.90
2018-05-18T10:15:50.288Z,13.00
2018-05-18T10:18:17.905Z,13.00
2018-05-18T10:20:45.477Z,13.00
2018-05-18T10:23:13.089Z,13.20
2018-05-18T10:25:40.664Z,13.30
2018-05-18T10:28:08.278Z,13.30
2018-05-18T10:30:35.852Z,13.20
2018-05-18T10:33:03.469Z,13.20
2018-05-18T10:35:31.041Z,13.20
2018-05-18T10:37:58.654Z,13.20
2018-05-18T10:40:26.219Z,13.20
2018-05-18T10:42:53.815Z,13.20
2018-05-18T10:45:21.439Z,13.20
2018-05-18T10:47:49.021Z,13.40
2018-05-18T10:50:17.400Z,13.50
2018-05-18T10:52:45.930Z,13.40
2018-05-18T10:55:13.516Z,13.40
2018-05-18T10:57:41.099Z,13.30
2018-05-18T11:00:09.485Z,13.20
2018-05-18T11:02:37.861Z,13.30
2018-05-18T11:05:06.205Z,13.50
2018-05-18T11:07:33.835Z,13.50
2018-05-18T11:12:35.353Z,13.70
2018-05-18T11:15:02.973Z,13.70
2018-05-18T11:17:30.558Z,13.70
2018-05-18T11:19:58.180Z,13.70
2018-05-18T11:22:25.812Z,13.80
2018-05-18T11:24:53.376Z,13.80
2018-05-18T11:27:20.990Z,13.70
2018-05-18T11:29:48.566Z,13.60
2018-05-18T11:32:16.141Z,13.50
2018-05-18T11:34:43.761Z,13.50
2018-05-18T11:37:11.344Z,13.70
2018-05-18T11:39:38.953Z,13.80
2018-05-18T11:42:07.302Z,14.20
2018-05-18T11:44:34.923Z,14.10
2018-05-18T11:47:02.502Z,14.00
2018-05-18T11:49:30.074Z,14.00
2018-05-18T11:51:57.680Z,13.70
2018-05-18T11:54:25.292Z,13.70
2018-05-18T11:56:52.933Z,13.90
2018-05-18T11:59:20.520Z,14.00
2018-05-18T12:01:48.140Z,13.90
2018-05-18T12:04:15.748Z,14.00
2018-05-18T12:06:43.331Z,14.10
2018-05-18T12:09:10.942Z,13.90
2018-05-18T12:11:38.554Z,13.80
2018-05-18T12:14:06.174Z,13.90
2018-05-18T12:16:33.757Z,13.90
2018-05-18T12:19:01.334Z,14.20
2018-05-18T12:21:31.735Z,14.50
2018-05-18T12:23:59.347Z,14.80
2018-05-18T12:26:27.680Z,14.70
2018-05-18T12:28:55.254Z,14.70
2018-05-18T12:31:22.869Z,14.70
2018-05-18T12:33:50.485Z,14.50
2018-05-18T12:36:18.210Z,14.40
2018-05-18T12:38:45.829Z,14.30
2018-05-18T12:41:13.409Z,14.10
2018-05-18T12:43:40.989Z,14.00
2018-05-18T12:46:08.658Z,14.00
2018-05-18T12:48:36.316Z,14.00
2018-05-18T12:51:03.927Z,13.80
2018-05-18T12:53:31.498Z,13.80
2018-05-18T12:55:59.876Z,13.60
2018-05-18T12:58:28.220Z,13.60
2018-05-18T13:00:55.844Z,13.60
2018-05-18T13:03:23.431Z,13.60
2018-05-18T13:05:50.999Z,13.70
2018-05-18T13:08:18.628Z,13.70
2018-05-18T13:10:46.233Z,13.80
2018-05-18T13:13:13.798Z,14.10
2018-05-18T13:15:41.411Z,14.40
2018-05-18T13:18:09.025Z,14.30
2018-05-18T13:20:36.602Z,14.10
2018-05-18T13:23:04.989Z,13.90
2018-05-18T13:25:32.603Z,13.80
2018-05-18T13:28:00.179Z,13.80
2018-05-18T13:30:27.908Z,13.90
2018-05-18T13:32:56.117Z,14.00
2018-05-18T13:35:23.740Z,14.10
2018-05-18T13:37:51.362Z,14.10
2018-05-18T13:40:19.785Z,14.00
2018-05-18T13:42:47.390Z,14.00
2018-05-18T13:45:15.005Z,14.00
2018-05-18T13:47:42.615Z,14.20
2018-05-18T13:50:10.188Z,14.30
2018-05-18T13:52:38.616Z,14.40
2018-05-18T13:55:06.218Z,14.40
2018-05-18T13:57:33.835Z,14.40
2018-05-18T14:00:01.417Z,14.20
2018-05-18T14:02:29.027Z,14.20
2018-05-18T14:04:57.373Z,14.10
2018-05-18T14:07:25.011Z,14.10
2018-05-18T14:09:52.630Z,14.10
2018-05-18T14:12:20.983Z,14.20
2018-05-18T14:14:48.605Z,14.20
2018-05-18T14:17:16.623Z,14.00
2018-05-18T14:19:44.404Z,13.90
2018-05-18T14:22:11.981Z,13.70
2018-05-18T14:24:39.846Z,13.50
2018-05-18T14:27:07.435Z,13.40
2018-05-18T14:29:35.044Z,13.50
2018-05-18T14:32:03.428Z,13.60
2018-05-18T14:34:31.768Z,13.50
2018-05-18T14:36:59.448Z,13.40
2018-05-18T14:39:27.027Z,13.40
2018-05-18T14:41:55.410Z,13.20
2018-05-18T14:44:23.758Z,13.00
2018-05-18T14:46:51.440Z,13.00
2018-05-18T14:49:19.029Z,12.90
2018-05-18T14:51:46.664Z,12.90
2018-05-18T14:54:14.278Z,12.80
2018-05-18T14:56:41.861Z,12.80
2018-05-18T14:59:09.479Z,12.80
2018-05-18T15:01:37.064Z,12.90
2018-05-18T15:04:04.677Z,12.90
2018-05-18T15:06:33.021Z,12.80
2018-05-18T15:09:00.640Z,12.80
2018-05-18T15:11:28.222Z,12.90
2018-05-18T15:13:55.940Z,12.90
2018-05-18T15:16:23.546Z,13.00
2018-05-18T15:18:52.821Z,13.10
2018-05-18T15:21:21.195Z,13.00
2018-05-18T15:23:49.533Z,13.10
2018-05-18T15:26:17.141Z,13.10
2018-05-18T15:28:45.244Z,13.00
2018-05-18T15:31:13.674Z,12.80
2018-05-18T15:33:42.059Z,12.70
2018-05-18T15:36:10.404Z,12.60
2018-05-18T15:38:38.023Z,12.60
2018-05-18T15:41:05.606Z,12.70
2018-05-18T15:43:33.216Z,12.70
2018-05-18T15:46:00.822Z,12.80
2018-05-18T15:48:29.085Z,12.90
2018-05-18T15:50:56.878Z,13.00
2018-05-18T15:53:24.572Z,13.10
2018-05-18T15:55:52.334Z,13.00
2018-05-18T15:58:20.216Z,12.90
2018-05-18T16:00:47.861Z,12.90
2018-05-18T16:03:15.545Z,12.80
2018-05-18T16:05:43.935Z,12.70
2018-05-18T16:08:12.489Z,12.60
2018-05-18T16:10:40.429Z,12.50
2018-05-18T16:13:09.250Z,12.50
2018-05-18T16:15:37.305Z,12.50
2018-05-18T16:18:07.288Z,12.50
2018-05-18T16:20:35.445Z,12.40
2018-05-18T16:23:03.657Z,12.30
2018-05-18T16:25:31.943Z,12.30
2018-05-18T16:27:59.744Z,12.10
2018-05-18T16:30:27.492Z,12.10
2018-05-18T16:32:55.779Z,12.10
2018-05-18T16:35:24.615Z,12.10
2018-05-18T16:37:52.338Z,12.10
2018-05-18T16:40:21.036Z,12.20
2018-05-18T16:42:48.817Z,12.20
2018-05-18T16:45:16.526Z,12.30
2018-05-18T16:47:44.207Z,12.30
2018-05-18T16:50:13.243Z,12.20
2018-05-18T16:52:40.906Z,12.10
2018-05-18T16:55:08.643Z,12.00
2018-05-18T16:57:36.825Z,11.90
2018-05-18T17:00:04.437Z,11.90
2018-05-18T17:02:32.097Z,11.90
2018-05-18T17:05:00.273Z,11.80
2018-05-18T17:07:28.247Z,11.80
2018-05-18T17:09:57.109Z,11.80
2018-05-18T17:12:25.308Z,11.70
2018-05-18T17:14:55.346Z,11.80
2018-05-18T17:17:22.969Z,11.70
2018-05-18T17:19:50.602Z,11.70
2018-05-18T17:22:18.963Z,11.70
2018-05-18T17:24:46.572Z,11.60
2018-05-18T17:27:14.157Z,11.60
2018-05-18T17:29:41.771Z,11.60
2018-05-18T17:32:10.111Z,11.50
2018-05-18T17:34:37.761Z,11.50
2018-05-18T17:37:05.339Z,11.50
2018-05-18T17:39:32.917Z,11.50
2018-05-18T17:42:00.536Z,11.50
2018-05-18T17:44:28.302Z,11.50
2018-05-18T17:46:58.581Z,11.50
2018-05-18T17:49:28.223Z,11.50
2018-05-18T17:51:57.014Z,11.50
2018-05-18T17:54:24.985Z,11.40
2018-05-18T17:56:56.046Z,11.40
2018-05-18T17:59:23.693Z,11.40
2018-05-18T18:01:51.339Z,11.30
2018-05-18T18:04:19.046Z,11.30
2018-05-18T18:06:46.716Z,11.20
2018-05-18T18:09:14.320Z,11.20
2018-05-18T18:11:41.940Z,11.20
2018-05-18T18:14:09.574Z,11.20
2018-05-18T18:16:37.150Z,11.20
2018-05-18T18:19:04.728Z,11.20
2018-05-18T18:21:32.341Z,11.20
2018-05-18T18:23:59.921Z,11.10
2018-05-18T18:26:27.532Z,11.10
2018-05-18T18:28:55.909Z,11.00
2018-05-18T18:31:25.989Z,11.00
2018-05-18T18:33:56.607Z,11.00
2018-05-18T18:36:25.004Z,10.90
2018-05-18T18:38:54.004Z,10.90
2018-05-18T18:41:21.568Z,10.90
2018-05-18T18:43:49.133Z,10.90
2018-05-18T18:46:18.293Z,10.90
2018-05-18T18:48:45.947Z,10.90
2018-05-18T18:51:13.498Z,10.90
2018-05-18T18:53:41.065Z,10.90
2018-05-18T18:56:08.713Z,10.90
2018-05-18T18:58:37.043Z,10.80
2018-05-18T19:01:04.659Z,10.80
2018-05-18T19:03:32.232Z,10.70
2018-05-18T19:06:05.553Z,10.70
2018-05-18T19:08:33.150Z,10.70
2018-05-18T19:11:00.774Z,10.70
2018-05-18T19:13:28.383Z,10.70
2018-05-18T19:15:55.953Z,10.60
2018-05-18T19:18:23.553Z,10.60
2018-05-18T19:20:51.137Z,10.60
2018-05-18T19:23:18.747Z,10.60
2018-05-18T19:25:46.316Z,10.50
2018-05-18T19:28:13.925Z,10.50
2018-05-18T19:30:41.503Z,10.50
2018-05-18T19:33:09.117Z,10.40
2018-05-18T19:35:36.723Z,10.50
2018-05-18T19:38:04.294Z,10.40
2018-05-18T19:40:32.668Z,10.40
2018-05-18T19:43:00.237Z,10.40
2018-05-18T19:45:28.609Z,10.40
2018-05-18T19:47:56.970Z,10.40
2018-05-18T19:50:24.577Z,10.40
2018-05-18T19:52:52.149Z,10.40
2018-05-18T19:55:19.763Z,10.40
2018-05-18T19:57:47.393Z,10.40
2018-05-18T20:00:14.962Z,10.40
2018-05-18T20:02:42.611Z,10.40
2018-05-18T20:05:10.186Z,10.40
2018-05-18T20:07:37.841Z,10.40
2018-05-18T20:10:05.457Z,10.40
2018-05-18T20:12:33.024Z,10.40
2018-05-18T20:15:00.638Z,10.40
2018-05-18T20:17:28.208Z,10.40
2018-05-18T20:19:55.834Z,10.40
2018-05-18T20:22:23.415Z,10.40
2018-05-18T20:24:50.980Z,10.40
2018-05-18T20:27:18.592Z,10.40
2018-05-18T20:29:46.197Z,10.40
2018-05-18T20:32:13.804Z,10.40
2018-05-18T20:34:41.373Z,10.40
2018-05-18T20:37:08.980Z,10.40
2018-05-18T20:39:36.557Z,10.40
2018-05-18T20:42:04.164Z,10.40
2018-05-18T20:44:31.745Z,10.40
2018-05-18T20:46:59.363Z,10.40
2018-05-18T20:49:27.741Z,10.40
2018-05-18T20:51:56.072Z,10.40
2018-05-18T20:54:23.672Z,10.40
2018-05-18T20:56:51.288Z,10.40
2018-05-18T20:59:19.002Z,10.40
2018-05-18T21:01:46.946Z,10.40
2018-05-18T21:04:15.273Z,10.40
2018-05-18T21:06:43.932Z,10.40
2018-05-18T21:09:11.496Z,10.40
2018-05-18T21:11:39.417Z,10.40
2018-05-18T21:14:08.619Z,10.40
2018-05-18T21:16:36.300Z,10.40
2018-05-18T21:19:03.907Z,10.50
2018-05-18T21:21:32.572Z,10.50
2018-05-18T21:24:00.281Z,10.50
2018-05-18T21:26:28.448Z,10.50
2018-05-18T21:28:57.768Z,10.40
2018-05-18T21:31:26.721Z,10.40
2018-05-18T21:33:55.398Z,10.40
2018-05-18T21:36:25.268Z,10.40
2018-05-18T21:38:52.837Z,10.40
2018-05-18T21:41:21.901Z,10.40
2018-05-18T21:43:49.660Z,10.40
2018-05-18T21:46:17.567Z,10.40
2018-05-18T21:48:45.390Z,10.50
2018-05-18T21:51:13.067Z,10.50
2018-05-18T21:53:41.622Z,10.50
2018-05-18T21:56:09.270Z,10.40
2018-05-18T21:58:37.294Z,10.50
2018-05-18T22:01:04.908Z,10.50
2018-05-18T22:03:32.484Z,10.50
2018-05-18T22:06:00.101Z,10.40
2018-05-18T22:08:27.808Z,10.40
2018-05-18T22:10:55.446Z,10.50
2018-05-18T22:13:23.023Z,10.40
2018-05-18T22:15:51.361Z,10.50
2018-05-18T22:18:18.968Z,10.40
2018-05-18T22:20:47.021Z,10.40
2018-05-18T22:23:15.051Z,10.40
2018-05-18T22:25:42.727Z,10.40
2018-05-18T22:28:11.050Z,10.50
2018-05-18T22:30:38.671Z,10.40
2018-05-18T22:33:06.298Z,10.50
2018-05-18T22:35:33.872Z,10.50
2018-05-18T22:38:01.644Z,10.50
2018-05-18T22:40:29.580Z,10.50
2018-05-18T22:42:57.359Z,10.50
2018-05-18T22:45:25.001Z,10.50
2018-05-18T22:47:52.583Z,10.50
2018-05-18T22:50:24.169Z,10.50
2018-05-18T22:52:51.787Z,10.50
2018-05-18T22:55:19.401Z,10.50
2018-05-18T22:57:46.973Z,10.50
2018-05-18T23:00:29.327Z,10.40
2018-05-18T23:02:56.945Z,10.40
2018-05-18T23:05:24.580Z,10.40
2018-05-18T23:07:52.165Z,10.40
2018-05-18T23:10:19.745Z,10.40
2018-05-18T23:12:48.129Z,10.40
2018-05-18T23:15:16.516Z,10.40
2018-05-18T23:17:44.091Z,10.40
2018-05-18T23:20:11.667Z,10.40
2018-05-18T23:22:39.281Z,10.40
2018-05-18T23:25:06.852Z,10.40
2018-05-18T23:27:35.224Z,10.30
2018-05-18T23:30:02.807Z,10.40
2018-05-18T23:32:30.418Z,10.40
2018-05-18T23:34:57.989Z,10.40
2018-05-18T23:37:25.588Z,10.40
2018-05-18T23:39:53.738Z,10.40
2018-05-18T23:42:21.374Z,10.40
2018-05-18T23:44:48.945Z,10.40
2018-05-18T23:47:16.558Z,10.40
2018-05-18T23:49:44.133Z,10.30
2018-05-18T23:52:11.744Z,10.30
2018-05-18T23:54:40.111Z,10.40
2018-05-18T23:57:07.683Z,10.30
2018-05-18T23:59:35.301Z,10.30
